Time;durP1;ratioP1;P1;durP2;ratioP2;P2;SDS_P1;SDS_P2;PMS_P1;PMS_P2;Temp;Humidity;BMP_temperature;BMP_pressure;BME280_temperature;BME280_humidity;BME280_pressure;Samples;Min_cycle;Max_cycle;Signal;HPM_P1;HPM_P2
2021/07/12 00:01:09;;;;;;;13.52;2.60;;;;;;;16.88;100.00;100591.75;5241614;28;20036;-78
2021/07/12 00:03:39;;;;;;;16.40;2.30;;;;;;;16.82;100.00;100589.50;5241929;28;20828;-78
2021/07/12 00:06:09;;;;;;;80.32;3.90;;;;;;;16.32;100.00;100593.41;5240588;28;20168;-78
2021/07/12 00:08:40;;;;;;;145.70;4.38;;;;;;;16.42;100.00;100582.25;5240089;28;20070;-77
2021/07/12 00:11:10;;;;;;;25.70;2.45;;;;;;;16.56;100.00;100592.81;5244917;28;20024;-77
2021/07/12 00:13:41;;;;;;;12.20;2.65;;;;;;;16.57;100.00;100594.53;5245802;28;20167;-77
2021/07/12 00:16:11;;;;;;;12.43;1.80;;;;;;;16.58;100.00;100604.13;5246206;28;20422;-77
2021/07/12 00:18:41;;;;;;;35.15;1.90;;;;;;;16.47;100.00;100597.81;5245724;28;20055;-77
2021/07/12 00:21:12;;;;;;;13.82;1.58;;;;;;;16.53;100.00;100608.03;5245290;28;20029;-77
2021/07/12 00:23:42;;;;;;;7.18;1.40;;;;;;;16.59;100.00;100597.09;5245359;28;20028;-78
2021/07/12 00:26:12;;;;;;;3.13;1.27;;;;;;;16.59;100.00;100590.00;5244986;28;20386;-77
2021/07/12 00:28:43;;;;;;;3.90;1.50;;;;;;;16.55;100.00;100588.50;5245077;28;20025;-77
2021/07/12 00:31:13;;;;;;;9.00;1.90;;;;;;;16.50;100.00;100593.22;5244464;28;20397;-77
2021/07/12 00:33:43;;;;;;;5.60;1.92;;;;;;;16.44;100.00;100580.38;5245204;28;20120;-77
2021/07/12 00:36:14;;;;;;;5.07;1.42;;;;;;;16.49;100.00;100578.31;5245100;28;20384;-77
2021/07/12 00:38:44;;;;;;;13.13;1.98;;;;;;;16.36;100.00;100579.16;5244414;28;20079;-78
2021/07/12 00:41:14;;;;;;;7.10;2.03;;;;;;;16.34;100.00;100576.56;5241930;28;20228;-77
2021/07/12 00:43:45;;;;;;;4.05;1.50;;;;;;;16.47;100.00;100572.28;5244331;28;20429;-77
2021/07/12 00:46:15;;;;;;;2.90;1.60;;;;;;;16.58;100.00;100574.28;5244930;28;20107;-77
2021/07/12 00:48:45;;;;;;;7.20;1.80;;;;;;;16.63;100.00;100573.06;5245356;28;20539;-78
2021/07/12 00:51:16;;;;;;;7.07;2.10;;;;;;;16.48;100.00;100576.63;5243512;28;20076;-77
2021/07/12 00:53:46;;;;;;;4.53;1.60;;;;;;;16.49;100.00;100572.19;5244474;28;20025;-77
2021/07/12 00:56:17;;;;;;;6.90;1.73;;;;;;;16.48;100.00;100578.41;5244211;28;20505;-77
2021/07/12 00:58:47;;;;;;;8.25;1.77;;;;;;;16.48;100.00;100581.91;5234016;28;20482;-77
2021/07/12 01:01:18;;;;;;;7.47;1.75;;;;;;;16.54;100.00;100575.41;5239500;28;20028;-78
2021/07/12 01:03:49;;;;;;;8.45;2.20;;;;;;;16.56;100.00;100571.72;5244495;28;20621;-76
2021/07/12 01:06:19;;;;;;;6.50;1.55;;;;;;;16.54;100.00;100570.97;5240617;28;20026;-77
2021/07/12 01:08:50;;;;;;;5.10;1.73;;;;;;;16.52;100.00;100570.22;5244621;28;20104;-77
2021/07/12 01:11:44;;;;;;;14.82;2.13;;;;;;;16.19;100.00;100558.97;5244454;28;20609;-77
2021/07/12 01:14:36;;;;;;;40.15;3.40;;;;;;;15.80;100.00;100563.94;5259774;28;20090;-77
2021/07/12 01:17:25;;;;;;;34.08;2.90;;;;;;;15.71;100.00;100561.81;5242841;28;20397;-77
2021/07/12 01:20:11;;;;;;;20.20;2.67;;;;;;;15.87;100.00;100561.81;5240802;28;20067;-77
2021/07/12 01:22:44;;;;;;;20.10;2.00;;;;;;;15.88;100.00;100559.06;5244199;28;20032;-77
2021/07/12 01:25:23;;;;;;;11.05;2.15;;;;;;;16.04;100.00;100551.97;5243344;28;20025;-77
2021/07/12 01:28:24;;;;;;;15.73;2.70;;;;;;;15.85;100.00;100553.13;5242224;28;20509;-78
2021/07/12 01:31:32;;;;;;;18.30;2.70;;;;;;;15.80;100.00;100555.16;5239128;28;20356;-77
2021/07/12 01:34:26;;;;;;;15.63;2.10;;;;;;;16.04;100.00;100557.25;5242528;28;20027;-77
2021/07/12 01:37:02;;;;;;;11.70;1.70;;;;;;;16.18;100.00;100545.91;5241952;28;20032;-77
2021/07/12 01:39:41;;;;;;;9.68;1.85;;;;;;;16.23;100.00;100544.66;5259806;28;20028;-77
2021/07/12 01:42:22;;;;;;;9.25;2.72;;;;;;;16.11;100.00;100547.19;5244310;28;20375;-77
2021/07/12 01:45:02;;;;;;;12.48;3.17;;;;;;;16.11;100.00;100528.72;5240599;28;20036;-78
2021/07/12 01:47:51;;;;;;;34.55;3.45;;;;;;;15.73;100.00;100528.31;5243797;28;20417;-77
2021/07/12 01:50:47;;;;;;;50.50;4.32;;;;;;;15.49;100.00;100534.97;5239863;28;20032;-77
2021/07/12 01:53:23;;;;;;;30.40;3.97;;;;;;;15.49;100.00;100529.72;5239825;28;20560;-77
2021/07/12 01:56:15;;;;;;;;;;;;;;;15.68;100.00;100530.38;5241607;28;20033;-77
2021/07/12 01:58:58;;;;;;;27.77;3.55;;;;;;;15.74;100.00;100531.81;5244169;28;19958;-78
2021/07/12 02:01:31;;;;;;;36.45;3.25;;;;;;;15.90;100.00;100528.19;5240224;28;20021;-77
2021/07/12 02:04:03;;;;;;;40.00;2.80;;;;;;;15.72;100.00;100526.59;5242013;28;20020;-77
2021/07/12 02:06:39;;;;;;;18.33;2.55;;;;;;;15.67;100.00;100523.41;5243355;28;20490;-76
2021/07/12 02:09:11;;;;;;;12.30;2.45;;;;;;;15.85;100.00;100527.59;5242333;28;20457;-77
2021/07/12 02:11:45;;;;;;;12.95;2.20;;;;;;;15.94;100.00;100529.72;5257293;22;20032;-79
2021/07/12 02:14:21;;;;;;;11.85;2.25;;;;;;;15.76;100.00;100527.28;5195569;28;20066;-79
2021/07/12 02:16:54;;;;;;;16.33;2.35;;;;;;;15.61;100.00;100536.06;5188056;28;20025;-79
2021/07/12 02:19:25;;;;;;;53.90;3.30;;;;;;;15.66;100.00;100521.69;5177279;28;20532;-79
2021/07/12 02:21:56;;;;;;;174.05;4.95;;;;;;;15.59;100.00;100524.78;5188004;28;20064;-79
2021/07/12 02:24:28;;;;;;;135.23;3.72;;;;;;;15.59;100.00;100517.72;5183904;28;20104;-79
2021/07/12 02:27:00;;;;;;;15.60;1.90;;;;;;;15.56;100.00;100532.84;5191618;28;20053;-79
2021/07/12 02:29:32;;;;;;;18.13;2.40;;;;;;;15.45;100.00;100522.06;5171068;28;20026;-80
2021/07/12 02:32:03;;;;;;;10.25;2.58;;;;;;;15.54;100.00;100525.03;5156677;28;20030;-79
2021/07/12 02:34:34;;;;;;;7.30;2.60;;;;;;;15.65;100.00;100520.00;5193551;28;20033;-80
2021/07/12 02:37:05;;;;;;;26.80;3.50;;;;;;;15.56;100.00;100509.97;5174384;28;20038;-80
2021/07/12 02:39:36;;;;;;;18.30;3.60;;;;;;;15.49;100.00;100516.53;5170117;28;20073;-79
2021/07/12 02:42:09;;;;;;;10.68;3.50;;;;;;;15.50;100.00;100515.59;5171525;28;20027;-79
2021/07/12 02:44:45;;;;;;;12.30;3.95;;;;;;;15.46;100.00;100511.44;5170167;28;20044;-79
2021/07/12 02:47:15;;;;;;;8.77;3.42;;;;;;;15.43;100.00;100509.00;5172823;28;20065;-79
2021/07/12 02:49:46;;;;;;;25.55;4.00;;;;;;;15.35;100.00;100511.19;5168735;28;20050;-79
2021/07/12 02:52:27;;;;;;;65.80;5.80;;;;;;;15.40;100.00;100503.88;5172556;28;20109;-79
2021/07/12 02:54:59;;;;;;;22.00;4.93;;;;;;;15.45;100.00;100500.97;5168458;28;20040;-79
2021/07/12 02:57:29;;;;;;;14.93;4.70;;;;;;;15.50;100.00;100491.91;5184123;28;20061;-79
2021/07/12 02:59:59;;;;;;;8.40;4.70;;;;;;;15.71;100.00;100493.28;5171110;28;20491;-79
2021/07/12 03:02:30;;;;;;;10.95;4.53;;;;;;;15.83;100.00;100497.84;5178176;28;20144;-79
2021/07/12 03:05:00;;;;;;;10.43;4.27;;;;;;;15.83;100.00;100487.31;5192146;28;20025;-79
2021/07/12 03:07:40;;;;;;;17.95;4.40;;;;;;;15.85;100.00;100485.44;5170632;28;20281;-79
2021/07/12 03:10:17;;;;;;;12.48;3.50;;;;;;;15.85;100.00;100489.88;5171507;28;20018;-79
2021/07/12 03:13:29;;;;;;;37.50;4.28;;;;;;;15.56;100.00;100478.34;5168132;28;20498;-79
2021/07/12 03:16:00;;;;;;;26.08;5.25;;;;;;;15.57;100.00;100474.78;5140156;28;20069;-80
2021/07/12 03:18:34;;;;;;;24.58;4.75;;;;;;;15.66;100.00;100474.28;5170794;28;20030;-80
2021/07/12 03:21:05;;;;;;;34.33;4.68;;;;;;;15.67;100.00;100481.25;5169840;28;20030;-77
2021/07/12 03:23:39;;;;;;;16.80;4.70;;;;;;;15.74;100.00;100477.28;5171522;28;20105;-79
2021/07/12 03:26:11;;;;;;;109.10;8.07;;;;;;;15.69;100.00;100476.72;5192254;28;20392;-80
2021/07/12 03:28:43;;;;;;;221.65;10.13;;;;;;;15.42;100.00;100486.22;5172143;28;20026;-79
2021/07/12 03:31:14;;;;;;;209.90;10.63;;;;;;;15.23;100.00;100485.53;5168807;28;20026;-80
2021/07/12 03:33:45;;;;;;;26.33;7.97;;;;;;;15.51;100.00;100480.41;5189724;28;20514;-79
2021/07/12 03:36:16;;;;;;;87.68;9.25;;;;;;;15.51;100.00;100480.41;5181995;28;20525;-79
2021/07/12 03:38:48;;;;;;;31.58;8.85;;;;;;;15.57;100.00;100480.06;5168464;28;20061;-79
2021/07/12 03:41:19;;;;;;;100.88;7.68;;;;;;;15.50;100.00;100484.00;5172723;28;20025;-79
2021/07/12 03:43:49;;;;;;;40.85;6.70;;;;;;;15.60;100.00;100485.19;5172888;28;20038;-79
2021/07/12 03:46:19;;;;;;;16.67;5.95;;;;;;;15.71;100.00;100485.38;5171667;28;20041;-80
2021/07/12 03:48:50;;;;;;;8.35;5.50;;;;;;;16.05;100.00;100481.63;5169505;28;20030;-79
2021/07/12 03:51:25;;;;;;;20.70;6.17;;;;;;;16.06;100.00;100478.06;5171845;28;20033;-79
2021/07/12 03:53:56;;;;;;;15.40;6.70;;;;;;;16.01;100.00;100483.59;5155326;28;20285;-81
2021/07/12 03:56:26;;;;;;;16.98;6.90;;;;;;;16.08;100.00;100478.81;5192933;28;20491;-79
2021/07/12 03:58:56;;;;;;;12.27;6.97;;;;;;;16.25;100.00;100487.41;5170635;28;20030;-78
2021/07/12 04:01:27;;;;;;;15.50;9.38;;;;;;;16.28;100.00;100487.25;5168909;28;20033;-80
2021/07/12 04:03:58;;;;;;;31.25;9.05;;;;;;;16.38;100.00;100485.75;5190171;28;20209;-79
2021/07/12 04:06:30;;;;;;;39.85;9.63;;;;;;;16.18;100.00;100483.44;5177391;28;20403;-79
2021/07/12 04:09:00;;;;;;;68.55;9.95;;;;;;;15.90;100.00;100493.91;5182932;28;20552;-79
2021/07/12 04:11:33;;;;;;;81.72;8.73;;;;;;;16.00;100.00;100492.44;5179242;28;20022;-79
2021/07/12 04:14:04;;;;;;;55.38;8.75;;;;;;;16.33;100.00;100489.59;5170286;28;20037;-79
2021/07/12 04:16:35;;;;;;;33.58;7.00;;;;;;;16.68;100.00;100483.91;5169515;28;20474;-79
2021/07/12 04:19:05;;;;;;;25.17;7.57;;;;;;;16.77;100.00;100487.75;5171443;28;20026;-79
2021/07/12 04:21:35;;;;;;;15.97;7.60;;;;;;;17.11;100.00;100480.28;5166997;28;20313;-79
2021/07/12 04:24:06;;;;;;;12.57;7.15;;;;;;;17.21;100.00;100473.44;5173698;28;20750;-79
2021/07/12 04:26:36;;;;;;;16.45;7.30;;;;;;;17.56;100.00;100467.59;5181475;28;20425;-79
2021/07/12 04:29:06;;;;;;;19.27;6.72;;;;;;;17.91;100.00;100465.25;5169497;28;20040;-79
2021/07/12 04:31:37;;;;;;;24.05;7.68;;;;;;;17.83;100.00;100464.94;5167048;28;20037;-79
2021/07/12 04:34:07;;;;;;;24.75;7.55;;;;;;;17.69;100.00;100465.81;5182121;28;20066;-79
2021/07/12 04:36:37;;;;;;;16.87;7.13;;;;;;;17.73;100.00;100461.19;5171293;28;20395;-81
2021/07/12 04:39:07;;;;;;;20.37;7.57;;;;;;;17.92;100.00;100461.66;5152054;28;20332;-82
2021/07/12 04:41:38;;;;;;;9.98;6.40;;;;;;;18.40;100.00;100459.22;5170437;28;20300;-82
2021/07/12 04:44:08;;;;;;;13.25;5.72;;;;;;;18.90;100.00;100452.03;5168463;28;20053;-79
2021/07/12 04:46:38;;;;;;;20.10;5.95;;;;;;;19.22;100.00;100455.88;5167248;28;20450;-79
2021/07/12 04:49:11;;;;;;;17.33;5.97;;;;;;;19.81;100.00;100460.25;5165410;28;20444;-80
2021/07/12 04:51:42;;;;;;;19.35;5.55;;;;;;;21.02;98.45;100452.47;5170402;28;20022;-79
2021/07/12 04:54:12;;;;;;;18.00;5.50;;;;;;;20.27;100.00;100466.44;5172704;28;20537;-80
2021/07/12 04:56:42;;;;;;;12.98;4.35;;;;;;;20.79;100.00;100456.97;5182442;28;20395;-80
2021/07/12 04:59:13;;;;;;;6.50;3.40;;;;;;;21.83;92.38;100438.59;5172002;28;20057;-80
2021/07/12 05:01:43;;;;;;;11.95;3.90;;;;;;;21.41;94.76;100441.28;5172636;28;20778;-80
2021/07/12 05:04:13;;;;;;;12.43;3.55;;;;;;;21.54;96.40;100444.63;5182511;28;20472;-79
2021/07/12 05:06:44;;;;;;;14.80;4.80;;;;;;;21.15;98.12;100447.88;5176946;28;20427;-79
2021/07/12 05:09:14;;;;;;;20.27;5.13;;;;;;;20.43;100.00;100450.19;5175504;28;20283;-79
2021/07/12 05:11:44;;;;;;;21.35;5.68;;;;;;;19.93;100.00;100455.84;5172890;28;20033;-79
2021/07/12 05:14:15;;;;;;;20.48;5.70;;;;;;;19.28;100.00;100459.91;5169927;28;20389;-79
2021/07/12 05:16:45;;;;;;;22.20;5.80;;;;;;;19.39;100.00;100465.25;5173622;28;20522;-79
2021/07/12 05:19:16;;;;;;;23.27;6.55;;;;;;;19.20;100.00;100463.09;5170902;28;20109;-79
2021/07/12 05:21:46;;;;;;;21.70;6.35;;;;;;;19.82;100.00;100456.63;5175512;28;20031;-80
2021/07/12 05:24:17;;;;;;;13.10;4.75;;;;;;;21.59;100.00;100458.41;5181419;28;20025;-79
2021/07/12 05:26:47;;;;;;;12.63;4.28;;;;;;;23.02;96.42;100445.00;5194954;28;20385;-80
2021/07/12 05:29:18;;;;;;;14.35;4.78;;;;;;;23.45;90.04;100453.53;5172832;28;20037;-80
2021/07/12 05:31:49;;;;;;;15.63;4.80;;;;;;;23.56;88.90;100450.75;5170689;28;20292;-79
2021/07/12 05:34:19;;;;;;;11.70;4.05;;;;;;;24.91;81.95;100455.59;5186033;28;20025;-79
2021/07/12 05:36:49;;;;;;;9.43;3.15;;;;;;;26.78;78.50;100440.94;5175576;28;20377;-77
2021/07/12 05:39:19;;;;;;;14.30;3.45;;;;;;;27.03;73.41;100438.19;5174465;28;20025;-80
2021/07/12 05:41:50;;;;;;;8.27;2.90;;;;;;;27.68;75.93;100437.38;5169774;28;20484;-79
2021/07/12 05:44:20;;;;;;;10.93;3.00;;;;;;;28.49;71.66;100441.75;5174426;28;20424;-79
2021/07/12 05:46:50;;;;;;;12.00;3.10;;;;;;;28.29;70.28;100445.78;5170043;28;20285;-79
2021/07/12 05:49:21;;;;;;;11.77;3.38;;;;;;;26.16;78.19;100443.06;5173096;28;20280;-79
2021/07/12 05:51:51;;;;;;;9.33;3.40;;;;;;;24.40;89.25;100443.66;5164023;28;20515;-79
2021/07/12 05:54:21;;;;;;;9.93;3.50;;;;;;;24.67;83.79;100446.41;5181431;28;20276;-78
2021/07/12 05:56:52;;;;;;;13.63;4.00;;;;;;;24.34;86.33;100441.56;5190488;28;20281;-77
2021/07/12 05:59:22;;;;;;;8.23;3.90;;;;;;;24.24;87.12;100440.75;5168581;28;20105;-77
2021/07/12 06:01:52;;;;;;;11.10;3.57;;;;;;;24.18;88.69;100441.31;5172400;28;20026;-78
2021/07/12 06:04:22;;;;;;;11.50;4.33;;;;;;;23.53;91.86;100435.03;5194501;28;20040;-77
2021/07/12 06:06:53;;;;;;;8.93;3.80;;;;;;;23.93;89.58;100446.44;5175112;28;20360;-77
2021/07/12 06:09:23;;;;;;;6.82;3.72;;;;;;;24.36;89.89;100436.94;5155138;28;20265;-78
2021/07/12 06:11:53;;;;;;;9.13;3.77;;;;;;;24.08;89.19;100443.16;5170084;28;20022;-79
2021/07/12 06:14:23;;;;;;;9.33;3.70;;;;;;;24.06;89.63;100445.13;5172968;28;20057;-78
2021/07/12 06:16:54;;;;;;;11.00;3.90;;;;;;;24.56;89.95;100441.25;5169349;28;20281;-78
2021/07/12 06:19:24;;;;;;;10.57;4.32;;;;;;;23.38;94.14;100447.09;5172352;28;20627;-78
2021/07/12 06:21:55;;;;;;;13.65;4.32;;;;;;;24.04;91.52;100447.09;5169280;28;20058;-79
2021/07/12 06:24:25;;;;;;;8.38;4.03;;;;;;;24.53;90.12;100438.88;5181916;28;20151;-79
2021/07/12 06:26:55;;;;;;;14.18;4.50;;;;;;;23.89;90.83;100437.84;5190895;28;20266;-78
2021/07/12 06:29:25;;;;;;;12.83;4.00;;;;;;;24.46;85.55;100435.06;5170184;28;20026;-78
2021/07/12 06:31:56;;;;;;;8.00;3.50;;;;;;;24.65;85.63;100423.50;5174156;28;20030;-79
2021/07/12 06:34:26;;;;;;;11.98;3.80;;;;;;;24.86;87.05;100427.63;5194905;28;20063;-78
2021/07/12 06:36:56;;;;;;;11.90;3.40;;;;;;;25.14;89.02;100434.66;5174592;28;20092;-78
2021/07/12 06:39:27;;;;;;;8.43;3.67;;;;;;;26.22;83.09;100435.22;5171756;28;20115;-78
2021/07/12 06:41:57;;;;;;;9.48;3.90;;;;;;;26.68;81.97;100423.28;5169625;28;20370;-78
2021/07/12 06:44:27;;;;;;;9.32;3.85;;;;;;;24.26;88.49;100441.47;5172300;28;20036;-76
2021/07/12 06:46:58;;;;;;;7.87;3.43;;;;;;;24.17;89.82;100442.31;5170396;28;20042;-77
2021/07/12 06:49:28;;;;;;;12.23;3.83;;;;;;;25.06;88.34;100427.38;5171726;28;20280;-77
2021/07/12 06:51:58;;;;;;;8.70;3.67;;;;;;;24.91;89.38;100428.00;5170155;28;20041;-77
2021/07/12 06:54:29;;;;;;;9.50;4.00;;;;;;;24.51;91.84;100442.63;5178364;28;20315;-77
2021/07/12 06:56:59;;;;;;;11.77;4.80;;;;;;;24.96;86.42;100423.91;5190639;28;20045;-77
2021/07/12 06:59:29;;;;;;;8.53;3.50;;;;;;;26.05;85.50;100427.22;5169784;28;20380;-80
2021/07/12 07:02:00;;;;;;;6.63;3.70;;;;;;;26.63;82.60;100412.19;5171262;28;20292;-79
2021/07/12 07:04:30;;;;;;;8.37;3.60;;;;;;;26.30;84.38;100412.97;5195238;28;20421;-78
2021/07/12 07:07:00;;;;;;;9.38;4.13;;;;;;;24.76;87.93;100426.81;5176607;28;20272;-77
2021/07/12 07:09:31;;;;;;;11.85;4.00;;;;;;;25.08;84.25;100424.53;5169657;28;20022;-77
2021/07/12 07:12:01;;;;;;;7.93;4.10;;;;;;;25.00;84.46;100421.78;5170539;28;20042;-77
2021/07/12 07:14:31;;;;;;;9.60;4.97;;;;;;;23.43;90.95;100424.34;5170586;28;20512;-77
2021/07/12 07:17:02;;;;;;;9.60;4.50;;;;;;;23.93;89.75;100417.06;5169930;28;20030;-77
2021/07/12 07:19:32;;;;;;;9.15;4.78;;;;;;;23.91;93.51;100411.84;5170029;28;20273;-78
2021/07/12 07:22:03;;;;;;;8.85;4.55;;;;;;;24.67;89.12;100404.47;5170054;28;20026;-77
2021/07/12 07:24:33;;;;;;;8.93;4.90;;;;;;;23.51;94.60;100405.81;5179916;28;20029;-77
2021/07/12 07:27:04;;;;;;;11.50;5.13;;;;;;;23.68;97.48;100405.09;5188861;28;20057;-77
2021/07/12 07:29:34;;;;;;;9.70;4.78;;;;;;;24.29;94.48;100408.25;5171014;28;20282;-77
2021/07/12 07:32:05;;;;;;;10.90;5.73;;;;;;;24.30;93.69;100400.09;5174470;28;20041;-77
2021/07/12 07:34:35;;;;;;;7.10;4.53;;;;;;;25.59;89.42;100400.66;5192669;28;20291;-76
2021/07/12 07:37:07;;;;;;;14.20;5.60;;;;;;;25.21;90.92;100403.66;5174396;28;20117;-77
2021/07/12 07:39:38;;;;;;;10.85;4.97;;;;;;;26.33;86.19;100394.75;5170120;28;20033;-77
2021/07/12 07:42:08;;;;;;;8.32;3.92;;;;;;;26.68;84.12;100394.63;5171049;28;20043;-77
2021/07/12 07:44:39;;;;;;;10.70;4.63;;;;;;;28.77;75.21;100386.50;5169902;28;20035;-77
2021/07/12 07:47:10;;;;;;;5.70;3.70;;;;;;;29.42;72.01;100387.84;5170919;28;20060;-77
2021/07/12 07:49:40;;;;;;;12.15;4.50;;;;;;;28.06;74.77;100396.44;5165664;28;20038;-78
2021/07/12 07:52:10;;;;;;;9.93;4.10;;;;;;;29.53;70.67;100393.69;5172264;28;20488;-78
2021/07/12 07:54:41;;;;;;;9.52;4.40;;;;;;;27.66;75.76;100393.72;5177191;28;20033;-80
2021/07/12 07:57:11;;;;;;;6.97;4.38;;;;;;;26.56;79.25;100397.75;5174975;28;20726;-80
2021/07/12 07:59:41;;;;;;;7.80;4.20;;;;;;;29.97;69.54;100386.59;5176327;28;20642;-78
2021/07/12 08:02:12;;;;;;;5.95;4.22;;;;;;;29.40;69.02;100395.28;5175875;28;20030;-77
2021/07/12 08:04:42;;;;;;;8.97;3.83;;;;;;;30.67;66.84;100398.72;5175256;28;20026;-80
2021/07/12 08:07:12;;;;;;;7.47;3.70;;;;;;;31.92;63.17;100383.75;5185135;28;20777;-79
2021/07/12 08:09:43;;;;;;;10.30;3.30;;;;;;;32.24;63.65;100384.00;5171859;28;20291;-78
2021/07/12 08:12:13;;;;;;;8.13;3.20;;;;;;;30.25;66.77;100382.28;5169979;28;20278;-79
2021/07/12 08:14:43;;;;;;;7.87;3.53;;;;;;;30.76;65.33;100375.16;5176029;28;20040;-77
2021/07/12 08:17:13;;;;;;;6.67;3.40;;;;;;;31.50;64.69;100381.88;5173572;28;20234;-76
2021/07/12 08:19:44;;;;;;;9.03;3.93;;;;;;;28.61;74.17;100393.81;5175888;28;20277;-79
2021/07/12 08:22:14;;;;;;;6.37;3.50;;;;;;;28.68;73.36;100400.16;5171365;28;20037;-78
2021/07/12 08:24:44;;;;;;;6.30;3.63;;;;;;;27.87;74.98;100393.25;5185301;28;20065;-77
2021/07/12 08:27:14;;;;;;;5.97;3.53;;;;;;;28.72;70.23;100394.28;5186538;28;20343;-76
2021/07/12 08:29:45;;;;;;;6.03;3.37;;;;;;;29.48;70.31;100387.16;5172351;28;20037;-77
2021/07/12 08:32:15;;;;;;;5.33;3.20;;;;;;;30.11;68.02;100374.19;5178775;28;20104;-76
2021/07/12 08:34:45;;;;;;;8.48;3.60;;;;;;;29.75;67.79;100375.84;5195467;28;20284;-78
2021/07/12 08:37:16;;;;;;;4.67;3.40;;;;;;;29.06;70.15;100376.78;5176209;28;20391;-76
2021/07/12 08:39:46;;;;;;;6.50;3.25;;;;;;;29.01;71.24;100375.63;5171602;28;20057;-76
2021/07/12 08:42:17;;;;;;;5.97;3.60;;;;;;;28.69;72.08;100373.09;5175041;28;20022;-77
2021/07/12 08:44:47;;;;;;;5.43;3.70;;;;;;;29.84;69.38;100367.50;5170751;28;20558;-79
2021/07/12 08:47:18;;;;;;;7.47;3.45;;;;;;;28.81;71.13;100371.69;5175071;28;20026;-78
2021/07/12 08:49:48;;;;;;;6.40;3.50;;;;;;;27.91;72.78;100367.69;5167042;28;20037;-77
2021/07/12 08:52:19;;;;;;;5.97;3.55;;;;;;;27.95;76.07;100367.19;5171127;28;20022;-77
2021/07/12 08:54:49;;;;;;;6.07;3.25;;;;;;;29.16;71.66;100363.09;5181797;28;20059;-78
2021/07/12 08:57:19;;;;;;;7.47;3.00;;;;;;;28.44;76.58;100374.19;5179245;28;20026;-77
2021/07/12 08:59:54;;;;;;;4.77;3.30;;;;;;;27.92;72.89;100372.09;5174554;28;21007;-76
2021/07/12 09:02:25;;;;;;;6.55;3.10;;;;;;;28.09;72.46;100368.38;5179333;28;20435;-78
2021/07/12 09:04:55;;;;;;;4.63;3.10;;;;;;;27.34;74.87;100358.78;5194706;28;20132;-78
2021/07/12 09:07:27;;;;;;;5.15;3.08;;;;;;;27.83;73.69;100360.50;5177055;28;20280;-77
2021/07/12 09:10:09;;;;;;;5.03;2.83;;;;;;;28.43;71.85;100356.38;5173447;28;20069;-77
2021/07/12 09:12:46;;;;;;;4.55;3.40;;;;;;;27.02;77.30;100349.78;5170684;28;20113;-77
2021/07/12 09:15:20;;;;;;;5.63;2.83;;;;;;;28.23;72.10;100349.69;5174235;28;20091;-77
2021/07/12 09:17:52;;;;;;;3.88;2.78;;;;;;;29.15;67.77;100345.25;5167092;28;20026;-77
2021/07/12 09:20:28;;;;;;;4.88;2.55;;;;;;;30.33;67.71;100332.78;5169920;28;20026;-78
2021/07/12 09:23:21;;;;;;;4.15;2.40;;;;;;;30.63;65.12;100331.78;5171744;28;20030;-77
2021/07/12 09:26:03;;;;;;;6.03;2.40;;;;;;;30.80;62.65;100333.25;5193500;28;20033;-77
2021/07/12 09:28:48;;;;;;;8.20;2.58;;;;;;;30.59;62.51;100319.72;5176313;28;20030;-77
2021/07/12 09:31:31;;;;;;;4.70;2.25;;;;;;;30.37;64.69;100320.59;5170378;28;20029;-77
2021/07/12 09:34:01;;;;;;;3.53;2.25;;;;;;;29.21;68.59;100323.84;5194548;28;20040;-76
2021/07/12 09:36:33;;;;;;;4.22;2.50;;;;;;;28.34;69.48;100322.44;5180120;28;20030;-76
2021/07/12 09:39:23;;;;;;;4.60;2.33;;;;;;;27.77;71.14;100312.81;5172764;28;20199;-77
2021/07/12 09:41:58;;;;;;;5.75;2.67;;;;;;;27.71;71.02;100310.81;5173086;28;20019;-79
2021/07/12 09:44:29;;;;;;;4.72;2.33;;;;;;;29.11;67.28;100308.94;5172653;28;20030;-77
2021/07/12 09:47:12;;;;;;;4.95;2.40;;;;;;;29.61;67.20;100304.69;5172336;28;20112;-77
2021/07/12 09:49:43;;;;;;;3.42;2.15;;;;;;;27.84;69.43;100311.13;5170733;28;20515;-77
2021/07/12 09:52:15;;;;;;;6.07;2.20;;;;;;;27.61;70.66;100310.09;5172376;28;20030;-77
2021/07/12 09:54:48;;;;;;;4.90;2.30;;;;;;;27.13;72.79;100306.59;5181765;28;20022;-76
2021/07/12 09:57:21;;;;;;;4.10;2.25;;;;;;;26.71;71.85;100313.00;5185961;28;20022;-76
2021/07/12 10:00:04;;;;;;;3.97;2.45;;;;;;;27.26;74.30;100297.03;5172508;28;20582;-76
2021/07/12 10:02:37;;;;;;;3.97;2.10;;;;;;;27.72;70.35;100309.81;5179285;28;20035;-76
2021/07/12 10:05:10;;;;;;;2.88;2.28;;;;;;;27.91;71.53;100309.44;5193394;28;20085;-78
2021/07/12 10:07:40;;;;;;;4.60;2.25;;;;;;;27.32;72.57;100315.16;5170670;28;20089;-77
2021/07/12 10:10:13;;;;;;;5.07;2.38;;;;;;;27.28;72.30;100308.44;5173135;28;20030;-76
2021/07/12 10:12:45;;;;;;;4.25;2.47;;;;;;;27.29;71.03;100293.16;5169866;28;20085;-77
2021/07/12 10:15:17;;;;;;;4.72;2.67;;;;;;;26.52;75.97;100303.38;5153716;28;20511;-77
2021/07/12 10:17:48;;;;;;;4.78;2.40;;;;;;;26.28;75.96;100300.56;5170634;28;20038;-76
2021/07/12 10:20:18;;;;;;;6.40;2.70;;;;;;;26.90;75.10;100295.59;5169076;28;20443;-76
2021/07/12 10:22:49;;;;;;;3.28;2.70;;;;;;;26.80;76.73;100292.22;5168832;28;20073;-76
2021/07/12 10:25:20;;;;;;;5.03;2.65;;;;;;;27.79;75.82;100296.53;5191309;28;20068;-77
2021/07/12 10:27:55;;;;;;;4.65;2.40;;;;;;;26.66;74.03;100297.38;5181974;28;20132;-76
2021/07/12 10:30:44;;;;;;;3.00;2.28;;;;;;;26.96;75.17;100294.94;5169923;28;20030;-78
2021/07/12 10:33:17;;;;;;;4.30;2.65;;;;;;;26.75;74.93;100288.38;5185818;28;20442;-79
2021/07/12 10:35:54;;;;;;;3.03;2.55;;;;;;;25.97;76.21;100279.81;5184406;28;20088;-79
2021/07/12 10:38:42;;;;;;;7.63;3.00;;;;;;;26.11;74.77;100276.50;5173946;28;20556;-78
2021/07/12 10:41:26;;;;;;;4.95;2.70;;;;;;;27.02;75.52;100269.28;5172780;28;20030;-76
2021/07/12 10:44:08;;;;;;;6.30;2.75;;;;;;;26.93;74.39;100281.03;5173770;28;20038;-77
2021/07/12 10:46:39;;;;;;;3.80;2.85;;;;;;;27.40;72.49;100282.06;5170792;28;20054;-78
2021/07/12 10:49:36;;;;;;;3.67;2.40;;;;;;;27.51;72.92;100271.84;5168738;28;20854;-76
2021/07/12 10:52:45;;;;;;;4.63;2.45;;;;;;;27.40;71.42;100274.03;5168587;28;20042;-78
2021/07/12 10:55:28;;;;;;;4.63;2.65;;;;;;;27.20;72.83;100276.22;5182906;28;20033;-76
2021/07/12 10:58:28;;;;;;;2.83;2.47;;;;;;;27.54;70.89;100271.50;5172700;28;20030;-76
2021/07/12 11:01:02;;;;;;;8.52;2.90;;;;;;;27.74;72.74;100274.69;5143464;28;20077;-77
2021/07/12 11:03:44;;;;;;;4.22;2.42;;;;;;;27.75;71.33;100268.34;5186550;28;20483;-77
2021/07/12 11:06:19;;;;;;;3.05;2.50;;;;;;;27.68;69.83;100276.19;5181366;28;20308;-77
2021/07/12 11:08:54;;;;;;;5.22;2.60;;;;;;;27.53;71.24;100264.47;5172139;28;20291;-77
2021/07/12 11:11:24;;;;;;;5.10;2.50;;;;;;;26.92;74.32;100260.56;5169318;28;20018;-77
2021/07/12 11:13:58;;;;;;;4.30;2.57;;;;;;;26.70;74.82;100263.03;5171585;28;20076;-78
2021/07/12 11:16:55;;;;;;;3.83;2.75;;;;;;;26.40;75.51;100261.75;5170158;28;20092;-78
2021/07/12 11:19:29;;;;;;;3.42;2.72;;;;;;;26.06;74.72;100262.75;5162273;28;20046;-77
2021/07/12 11:22:12;;;;;;;4.22;2.72;;;;;;;26.02;75.00;100250.69;5171997;28;20060;-77
2021/07/12 11:25:04;;;;;;;3.63;2.72;;;;;;;26.09;76.19;100254.41;5181781;28;20041;-77
2021/07/12 11:27:39;;;;;;;4.68;2.80;;;;;;;25.74;78.02;100257.19;5182319;28;20160;-77
2021/07/12 11:30:29;;;;;;;3.42;2.70;;;;;;;26.23;76.57;100249.28;5164035;28;20114;-76
2021/07/12 11:32:59;;;;;;;5.90;3.00;;;;;;;26.12;77.11;100244.22;5165337;28;20030;-77
2021/07/12 11:35:30;;;;;;;4.05;3.10;;;;;;;26.28;75.75;100235.38;5187153;28;20180;-78
2021/07/12 11:38:05;;;;;;;3.83;2.88;;;;;;;26.37;74.60;100226.38;5170079;28;20034;-77
2021/07/12 11:40:36;;;;;;;;;;;;;;;26.44;75.60;100230.06;5168229;28;20030;-76
2021/07/12 11:43:06;;;;;;;6.33;3.03;;;;;;;26.48;74.76;100226.09;5172867;28;20429;-77
2021/07/12 11:45:36;;;;;;;4.77;2.80;;;;;;;26.43;76.89;100231.09;5184823;28;20631;-78
2021/07/12 11:48:09;;;;;;;3.90;2.78;;;;;;;26.61;74.56;100226.47;5173241;28;20277;-77